sensor_id;sensor_type;location;lat;lon;timestamp;temperature;humidity
12849;DHT22;6493;50.928;7.172;2023-03-01T00:03:52;-2.60;41.70
12849;DHT22;6493;50.928;7.172;2023-03-01T00:08:56;-2.60;41.70
12849;DHT22;6493;50.928;7.172;2023-03-01T00:14:03;-2.70;41.70
12849;DHT22;6493;50.928;7.172;2023-03-01T00:19:12;-2.70;41.80
12849;DHT22;6493;50.928;7.172;2023-03-01T00:24:15;-2.80;41.80
12849;DHT22;6493;50.928;7.172;2023-03-01T00:29:20;-2.80;41.90
12849;DHT22;6493;50.928;7.172;2023-03-01T00:34:23;-2.80;41.90
12849;DHT22;6493;50.928;7.172;2023-03-01T00:39:26;-2.90;41.90
12849;DHT22;6493;50.928;7.172;2023-03-01T00:44:31;-2.90;41.90
12849;DHT22;6493;50.928;7.172;2023-03-01T00:49:36;-3.00;41.90
12849;DHT22;6493;50.928;7.172;2023-03-01T00:54:39;-3.00;42.00
12849;DHT22;6493;50.928;7.172;2023-03-01T00:59:44;-3.10;42.00
12849;DHT22;6493;50.928;7.172;2023-03-01T01:04:47;-3.10;42.10
12849;DHT22;6493;50.928;7.172;2023-03-01T01:09:50;-3.10;42.10
12849;DHT22;6493;50.928;7.172;2023-03-01T01:14:55;-3.20;42.10
12849;DHT22;6493;50.928;7.172;2023-03-01T01:19:58;-3.20;42.30
12849;DHT22;6493;50.928;7.172;2023-03-01T01:25:01;-3.20;42.40
12849;DHT22;6493;50.928;7.172;2023-03-01T01:30:08;-3.30;42.30
12849;DHT22;6493;50.928;7.172;2023-03-01T01:35:12;-3.30;42.40
12849;DHT22;6493;50.928;7.172;2023-03-01T01:40:15;-3.40;42.50
12849;DHT22;6493;50.928;7.172;2023-03-01T01:45:29;-3.40;42.60
12849;DHT22;6493;50.928;7.172;2023-03-01T01:50:34;-3.50;42.70
12849;DHT22;6493;50.928;7.172;2023-03-01T01:55:43;-3.60;42.70
12849;DHT22;6493;50.928;7.172;2023-03-01T02:00:49;-3.70;43.60
12849;DHT22;6493;50.928;7.172;2023-03-01T02:05:56;-3.80;43.40
12849;DHT22;6493;50.928;7.172;2023-03-01T02:11:01;-3.90;44.10
12849;DHT22;6493;50.928;7.172;2023-03-01T02:16:10;-4.00;44.50
12849;DHT22;6493;50.928;7.172;2023-03-01T02:21:29;-4.10;44.40
12849;DHT22;6493;50.928;7.172;2023-03-01T02:26:38;-4.20;44.40
12849;DHT22;6493;50.928;7.172;2023-03-01T02:31:43;-4.30;44.30
12849;DHT22;6493;50.928;7.172;2023-03-01T02:36:49;-4.40;44.30
12849;DHT22;6493;50.928;7.172;2023-03-01T02:41:54;-4.40;44.20
12849;DHT22;6493;50.928;7.172;2023-03-01T02:47:02;-4.40;44.60
12849;DHT22;6493;50.928;7.172;2023-03-01T02:52:21;-4.50;44.10
12849;DHT22;6493;50.928;7.172;2023-03-01T02:57:28;-4.50;44.20
12849;DHT22;6493;50.928;7.172;2023-03-01T03:02:35;-4.50;44.10
12849;DHT22;6493;50.928;7.172;2023-03-01T03:07:54;-4.50;44.10
12849;DHT22;6493;50.928;7.172;2023-03-01T03:13:00;-4.50;44.50
12849;DHT22;6493;50.928;7.172;2023-03-01T03:18:08;-4.50;45.10
12849;DHT22;6493;50.928;7.172;2023-03-01T03:23:11;-4.60;44.60
12849;DHT22;6493;50.928;7.172;2023-03-01T03:28:15;-4.60;45.00
12849;DHT22;6493;50.928;7.172;2023-03-01T03:33:20;-4.60;45.70
12849;DHT22;6493;50.928;7.172;2023-03-01T03:38:24;-4.70;45.60
12849;DHT22;6493;50.928;7.172;2023-03-01T03:43:28;-4.80;45.10
12849;DHT22;6493;50.928;7.172;2023-03-01T03:48:37;-4.80;45.10
12849;DHT22;6493;50.928;7.172;2023-03-01T03:53:41;-4.80;45.50
12849;DHT22;6493;50.928;7.172;2023-03-01T03:58:45;-4.90;45.70
12849;DHT22;6493;50.928;7.172;2023-03-01T04:03:49;-4.90;45.40
12849;DHT22;6493;50.928;7.172;2023-03-01T04:08:56;-4.90;45.30
12849;DHT22;6493;50.928;7.172;2023-03-01T04:13:59;-4.90;45.40
12849;DHT22;6493;50.928;7.172;2023-03-01T04:19:04;-4.90;45.30
12849;DHT22;6493;50.928;7.172;2023-03-01T04:24:08;-5.00;45.40
12849;DHT22;6493;50.928;7.172;2023-03-01T04:29:11;-5.00;45.20
12849;DHT22;6493;50.928;7.172;2023-03-01T04:34:15;-5.00;45.50
12849;DHT22;6493;50.928;7.172;2023-03-01T04:39:18;-5.00;45.50
12849;DHT22;6493;50.928;7.172;2023-03-01T04:44:22;-5.10;45.70
12849;DHT22;6493;50.928;7.172;2023-03-01T04:49:26;-5.10;45.90
12849;DHT22;6493;50.928;7.172;2023-03-01T04:54:30;-5.10;45.80
12849;DHT22;6493;50.928;7.172;2023-03-01T04:59:34;-5.20;45.70
12849;DHT22;6493;50.928;7.172;2023-03-01T05:04:39;-5.20;46.80
12849;DHT22;6493;50.928;7.172;2023-03-01T05:09:43;-5.30;47.30
12849;DHT22;6493;50.928;7.172;2023-03-01T05:14:46;-5.30;47.10
12849;DHT22;6493;50.928;7.172;2023-03-01T05:19:50;-5.40;47.20
12849;DHT22;6493;50.928;7.172;2023-03-01T05:24:53;-5.40;47.30
12849;DHT22;6493;50.928;7.172;2023-03-01T05:29:57;-5.50;47.60
12849;DHT22;6493;50.928;7.172;2023-03-01T05:35:01;-5.50;47.80
12849;DHT22;6493;50.928;7.172;2023-03-01T05:40:08;-5.60;48.20
12849;DHT22;6493;50.928;7.172;2023-03-01T05:45:18;-5.60;47.50
12849;DHT22;6493;50.928;7.172;2023-03-01T05:50:24;-5.60;48.20
12849;DHT22;6493;50.928;7.172;2023-03-01T05:55:29;-5.70;47.80
12849;DHT22;6493;50.928;7.172;2023-03-01T06:00:34;-5.70;48.40
12849;DHT22;6493;50.928;7.172;2023-03-01T06:05:39;-5.70;48.20
12849;DHT22;6493;50.928;7.172;2023-03-01T06:10:43;-5.80;48.00
12849;DHT22;6493;50.928;7.172;2023-03-01T06:15:46;-5.70;48.90
12849;DHT22;6493;50.928;7.172;2023-03-01T06:20:54;-5.80;49.00
12849;DHT22;6493;50.928;7.172;2023-03-01T06:25:58;-5.80;48.50
12849;DHT22;6493;50.928;7.172;2023-03-01T06:31:01;-5.80;48.30
12849;DHT22;6493;50.928;7.172;2023-03-01T06:36:07;-5.80;48.90
12849;DHT22;6493;50.928;7.172;2023-03-01T06:41:11;-5.80;48.60
12849;DHT22;6493;50.928;7.172;2023-03-01T06:46:15;-5.80;48.70
12849;DHT22;6493;50.928;7.172;2023-03-01T06:51:19;-5.80;48.20
12849;DHT22;6493;50.928;7.172;2023-03-01T06:56:22;-5.80;49.00
12849;DHT22;6493;50.928;7.172;2023-03-01T07:01:25;-5.70;49.10
12849;DHT22;6493;50.928;7.172;2023-03-01T07:06:30;-5.70;48.80
12849;DHT22;6493;50.928;7.172;2023-03-01T07:11:34;-5.60;49.00
12849;DHT22;6493;50.928;7.172;2023-03-01T07:16:37;-5.50;49.40
12849;DHT22;6493;50.928;7.172;2023-03-01T07:21:41;-5.30;49.10
12849;DHT22;6493;50.928;7.172;2023-03-01T07:26:48;-5.00;48.90
12849;DHT22;6493;50.928;7.172;2023-03-01T07:31:51;-4.70;48.90
12849;DHT22;6493;50.928;7.172;2023-03-01T07:36:56;-4.20;49.40
12849;DHT22;6493;50.928;7.172;2023-03-01T07:41:59;-3.90;49.10
12849;DHT22;6493;50.928;7.172;2023-03-01T07:47:03;-3.50;49.10
12849;DHT22;6493;50.928;7.172;2023-03-01T07:52:09;-3.00;49.10
12849;DHT22;6493;50.928;7.172;2023-03-01T07:57:13;-2.50;49.10
12849;DHT22;6493;50.928;7.172;2023-03-01T08:02:16;-1.80;49.30
12849;DHT22;6493;50.928;7.172;2023-03-01T08:07:20;-1.00;49.50
12849;DHT22;6493;50.928;7.172;2023-03-01T08:12:24;-0.10;50.20
12849;DHT22;6493;50.928;7.172;2023-03-01T08:17:29;1.00;50.30
12849;DHT22;6493;50.928;7.172;2023-03-01T08:22:34;1.80;49.60
12849;DHT22;6493;50.928;7.172;2023-03-01T08:27:37;2.60;49.10
12849;DHT22;6493;50.928;7.172;2023-03-01T08:32:40;3.30;48.30
12849;DHT22;6493;50.928;7.172;2023-03-01T08:37:45;3.90;47.50
12849;DHT22;6493;50.928;7.172;2023-03-01T08:42:48;4.50;47.70
12849;DHT22;6493;50.928;7.172;2023-03-01T08:47:52;5.00;47.00
12849;DHT22;6493;50.928;7.172;2023-03-01T08:52:57;5.40;46.40
12849;DHT22;6493;50.928;7.172;2023-03-01T08:58:00;5.60;44.00
12849;DHT22;6493;50.928;7.172;2023-03-01T09:03:03;5.60;43.00
12849;DHT22;6493;50.928;7.172;2023-03-01T09:08:07;5.40;42.00
12849;DHT22;6493;50.928;7.172;2023-03-01T09:13:11;5.20;43.50
12849;DHT22;6493;50.928;7.172;2023-03-01T09:18:14;5.00;42.30
12849;DHT22;6493;50.928;7.172;2023-03-01T09:23:19;4.80;41.50
12849;DHT22;6493;50.928;7.172;2023-03-01T09:28:22;4.50;41.50
12849;DHT22;6493;50.928;7.172;2023-03-01T09:33:32;4.20;41.70
12849;DHT22;6493;50.928;7.172;2023-03-01T09:38:37;3.80;40.80
12849;DHT22;6493;50.928;7.172;2023-03-01T09:43:44;3.50;42.60
12849;DHT22;6493;50.928;7.172;2023-03-01T09:48:51;3.20;43.00
12849;DHT22;6493;50.928;7.172;2023-03-01T09:53:56;3.10;42.80
12849;DHT22;6493;50.928;7.172;2023-03-01T09:59:14;3.00;42.00
12849;DHT22;6493;50.928;7.172;2023-03-01T10:04:28;2.90;43.20
12849;DHT22;6493;50.928;7.172;2023-03-01T10:09:35;3.00;43.60
12849;DHT22;6493;50.928;7.172;2023-03-01T10:14:43;3.10;42.70
12849;DHT22;6493;50.928;7.172;2023-03-01T10:19:48;3.00;42.70
12849;DHT22;6493;50.928;7.172;2023-03-01T10:24:53;3.00;42.90
12849;DHT22;6493;50.928;7.172;2023-03-01T10:30:02;3.00;43.30
12849;DHT22;6493;50.928;7.172;2023-03-01T10:35:20;3.10;43.00
12849;DHT22;6493;50.928;7.172;2023-03-01T10:40:25;3.20;43.10
12849;DHT22;6493;50.928;7.172;2023-03-01T10:45:35;3.30;43.00
12849;DHT22;6493;50.928;7.172;2023-03-01T10:50:40;3.40;42.00
12849;DHT22;6493;50.928;7.172;2023-03-01T10:55:45;3.30;42.10
12849;DHT22;6493;50.928;7.172;2023-03-01T11:00:50;3.30;41.80
12849;DHT22;6493;50.928;7.172;2023-03-01T11:06:04;3.20;42.20
12849;DHT22;6493;50.928;7.172;2023-03-01T11:11:25;3.30;41.50
12849;DHT22;6493;50.928;7.172;2023-03-01T11:16:35;3.40;42.10
12849;DHT22;6493;50.928;7.172;2023-03-01T11:21:41;3.60;42.20
12849;DHT22;6493;50.928;7.172;2023-03-01T11:26:53;3.70;41.80
12849;DHT22;6493;50.928;7.172;2023-03-01T11:31:59;3.90;42.30
12849;DHT22;6493;50.928;7.172;2023-03-01T11:37:13;4.00;42.10
12849;DHT22;6493;50.928;7.172;2023-03-01T11:42:23;4.20;42.00
12849;DHT22;6493;50.928;7.172;2023-03-01T11:47:41;4.40;41.50
12849;DHT22;6493;50.928;7.172;2023-03-01T11:52:57;4.60;42.80
12849;DHT22;6493;50.928;7.172;2023-03-01T11:58:14;4.80;41.80
12849;DHT22;6493;50.928;7.172;2023-03-01T12:03:28;5.00;41.40
12849;DHT22;6493;50.928;7.172;2023-03-01T12:08:37;5.10;41.50
12849;DHT22;6493;50.928;7.172;2023-03-01T12:25:15;5.20;39.40
12849;DHT22;6493;50.928;7.172;2023-03-01T12:30:26;5.20;40.30
12849;DHT22;6493;50.928;7.172;2023-03-01T12:35:50;5.40;40.60
12849;DHT22;6493;50.928;7.172;2023-03-01T12:41:23;5.50;39.60
12849;DHT22;6493;50.928;7.172;2023-03-01T12:46:39;5.50;38.60
12849;DHT22;6493;50.928;7.172;2023-03-01T12:51:51;5.40;39.00
12849;DHT22;6493;50.928;7.172;2023-03-01T12:57:03;5.40;38.70
12849;DHT22;6493;50.928;7.172;2023-03-01T13:02:16;5.40;39.10
12849;DHT22;6493;50.928;7.172;2023-03-01T13:07:29;5.50;40.40
12849;DHT22;6493;50.928;7.172;2023-03-01T13:12:51;5.60;39.30
12849;DHT22;6493;50.928;7.172;2023-03-01T13:17:56;5.80;39.70
12849;DHT22;6493;50.928;7.172;2023-03-01T13:23:04;5.80;39.60
12849;DHT22;6493;50.928;7.172;2023-03-01T13:28:41;5.90;38.70
12849;DHT22;6493;50.928;7.172;2023-03-01T13:33:45;5.90;38.70
12849;DHT22;6493;50.928;7.172;2023-03-01T13:38:57;5.90;39.30
12849;DHT22;6493;50.928;7.172;2023-03-01T13:44:01;6.00;39.80
12849;DHT22;6493;50.928;7.172;2023-03-01T13:49:09;6.10;40.30
12849;DHT22;6493;50.928;7.172;2023-03-01T13:54:28;6.20;40.10
12849;DHT22;6493;50.928;7.172;2023-03-01T13:59:32;6.30;40.20
12849;DHT22;6493;50.928;7.172;2023-03-01T14:04:35;6.30;40.20
12849;DHT22;6493;50.928;7.172;2023-03-01T14:09:43;6.30;40.40
12849;DHT22;6493;50.928;7.172;2023-03-01T14:14:52;6.40;39.30
12849;DHT22;6493;50.928;7.172;2023-03-01T14:20:00;6.40;39.60
12849;DHT22;6493;50.928;7.172;2023-03-01T14:25:16;6.30;40.30
12849;DHT22;6493;50.928;7.172;2023-03-01T14:30:23;6.30;37.00
12849;DHT22;6493;50.928;7.172;2023-03-01T14:35:28;6.20;39.40
12849;DHT22;6493;50.928;7.172;2023-03-01T14:40:34;6.10;38.50
12849;DHT22;6493;50.928;7.172;2023-03-01T14:45:38;6.00;38.60
12849;DHT22;6493;50.928;7.172;2023-03-01T14:50:42;6.00;39.10
12849;DHT22;6493;50.928;7.172;2023-03-01T14:55:51;5.90;39.20
12849;DHT22;6493;50.928;7.172;2023-03-01T15:00:57;5.90;39.20
12849;DHT22;6493;50.928;7.172;2023-03-01T15:06:02;5.80;39.00
12849;DHT22;6493;50.928;7.172;2023-03-01T15:11:19;5.70;39.40
12849;DHT22;6493;50.928;7.172;2023-03-01T15:16:26;5.60;38.90
12849;DHT22;6493;50.928;7.172;2023-03-01T15:21:32;5.60;38.90
12849;DHT22;6493;50.928;7.172;2023-03-01T15:26:41;5.50;38.80
12849;DHT22;6493;50.928;7.172;2023-03-01T15:31:55;5.40;39.00
12849;DHT22;6493;50.928;7.172;2023-03-01T15:37:01;5.30;38.80
12849;DHT22;6493;50.928;7.172;2023-03-01T15:42:10;5.30;39.30
12849;DHT22;6493;50.928;7.172;2023-03-01T15:47:35;5.30;39.30
12849;DHT22;6493;50.928;7.172;2023-03-01T15:52:40;5.20;39.00
12849;DHT22;6493;50.928;7.172;2023-03-01T15:57:46;5.20;38.60
12849;DHT22;6493;50.928;7.172;2023-03-01T16:02:49;5.00;38.70
12849;DHT22;6493;50.928;7.172;2023-03-01T16:07:54;4.90;38.20
12849;DHT22;6493;50.928;7.172;2023-03-01T16:12:59;4.80;38.40
12849;DHT22;6493;50.928;7.172;2023-03-01T16:18:03;4.70;38.80
12849;DHT22;6493;50.928;7.172;2023-03-01T16:23:08;4.60;38.90
12849;DHT22;6493;50.928;7.172;2023-03-01T16:28:14;4.60;38.80
12849;DHT22;6493;50.928;7.172;2023-03-01T16:33:17;4.50;38.70
12849;DHT22;6493;50.928;7.172;2023-03-01T16:38:34;4.40;38.70
12849;DHT22;6493;50.928;7.172;2023-03-01T16:43:39;4.30;38.90
12849;DHT22;6493;50.928;7.172;2023-03-01T16:48:43;4.30;38.70
12849;DHT22;6493;50.928;7.172;2023-03-01T16:53:47;4.20;38.90
12849;DHT22;6493;50.928;7.172;2023-03-01T16:58:51;4.10;39.00
12849;DHT22;6493;50.928;7.172;2023-03-01T17:03:55;4.10;39.00
12849;DHT22;6493;50.928;7.172;2023-03-01T17:08:58;3.90;38.80
12849;DHT22;6493;50.928;7.172;2023-03-01T17:14:03;3.90;38.70
12849;DHT22;6493;50.928;7.172;2023-03-01T17:19:06;3.80;38.90
12849;DHT22;6493;50.928;7.172;2023-03-01T17:24:09;3.70;39.40
12849;DHT22;6493;50.928;7.172;2023-03-01T17:29:14;3.60;39.60
12849;DHT22;6493;50.928;7.172;2023-03-01T17:34:19;3.50;39.50
12849;DHT22;6493;50.928;7.172;2023-03-01T17:39:23;3.30;39.50
12849;DHT22;6493;50.928;7.172;2023-03-01T17:44:34;3.20;39.60
12849;DHT22;6493;50.928;7.172;2023-03-01T17:49:37;3.10;39.70
12849;DHT22;6493;50.928;7.172;2023-03-01T17:54:41;3.00;39.70
12849;DHT22;6493;50.928;7.172;2023-03-01T17:59:45;3.00;39.80
12849;DHT22;6493;50.928;7.172;2023-03-01T18:04:48;2.90;39.70
12849;DHT22;6493;50.928;7.172;2023-03-01T18:09:52;2.90;39.80
12849;DHT22;6493;50.928;7.172;2023-03-01T18:14:56;2.80;39.70
12849;DHT22;6493;50.928;7.172;2023-03-01T18:20:00;2.70;39.60
12849;DHT22;6493;50.928;7.172;2023-03-01T18:25:03;2.60;39.40
12849;DHT22;6493;50.928;7.172;2023-03-01T18:30:10;2.60;39.50
12849;DHT22;6493;50.928;7.172;2023-03-01T18:35:14;2.50;39.10
12849;DHT22;6493;50.928;7.172;2023-03-01T18:40:17;2.40;39.30
12849;DHT22;6493;50.928;7.172;2023-03-01T18:45:21;2.30;39.30
12849;DHT22;6493;50.928;7.172;2023-03-01T18:50:25;2.30;39.40
12849;DHT22;6493;50.928;7.172;2023-03-01T18:55:28;2.20;39.30
12849;DHT22;6493;50.928;7.172;2023-03-01T19:00:33;2.10;39.20
12849;DHT22;6493;50.928;7.172;2023-03-01T19:05:40;2.10;39.80
12849;DHT22;6493;50.928;7.172;2023-03-01T19:10:44;2.00;39.20
12849;DHT22;6493;50.928;7.172;2023-03-01T19:15:48;1.90;39.30
12849;DHT22;6493;50.928;7.172;2023-03-01T19:20:56;1.80;39.20
12849;DHT22;6493;50.928;7.172;2023-03-01T19:26:07;1.80;39.30
12849;DHT22;6493;50.928;7.172;2023-03-01T19:31:14;1.70;39.90
12849;DHT22;6493;50.928;7.172;2023-03-01T19:36:18;1.70;39.30
12849;DHT22;6493;50.928;7.172;2023-03-01T19:41:22;1.60;39.30
12849;DHT22;6493;50.928;7.172;2023-03-01T19:46:27;1.60;39.30
12849;DHT22;6493;50.928;7.172;2023-03-01T19:51:32;1.50;39.10
12849;DHT22;6493;50.928;7.172;2023-03-01T19:56:37;1.40;38.90
12849;DHT22;6493;50.928;7.172;2023-03-01T20:01:42;1.30;38.80
12849;DHT22;6493;50.928;7.172;2023-03-01T20:06:46;1.20;38.90
12849;DHT22;6493;50.928;7.172;2023-03-01T20:11:50;1.10;38.90
12849;DHT22;6493;50.928;7.172;2023-03-01T20:16:55;1.00;38.90
12849;DHT22;6493;50.928;7.172;2023-03-01T20:21:59;0.90;39.10
12849;DHT22;6493;50.928;7.172;2023-03-01T20:27:03;0.80;39.20
12849;DHT22;6493;50.928;7.172;2023-03-01T20:32:08;0.70;39.30
12849;DHT22;6493;50.928;7.172;2023-03-01T20:37:11;0.70;39.50
12849;DHT22;6493;50.928;7.172;2023-03-01T20:42:15;0.60;39.50
12849;DHT22;6493;50.928;7.172;2023-03-01T20:47:19;0.60;39.40
12849;DHT22;6493;50.928;7.172;2023-03-01T20:52:24;0.60;39.40
12849;DHT22;6493;50.928;7.172;2023-03-01T20:57:27;0.50;39.30
12849;DHT22;6493;50.928;7.172;2023-03-01T21:02:32;0.50;39.30
12849;DHT22;6493;50.928;7.172;2023-03-01T21:07:35;0.50;39.70
12849;DHT22;6493;50.928;7.172;2023-03-01T21:12:38;0.40;40.10
12849;DHT22;6493;50.928;7.172;2023-03-01T21:17:43;0.30;39.60
12849;DHT22;6493;50.928;7.172;2023-03-01T21:22:46;0.30;39.60
12849;DHT22;6493;50.928;7.172;2023-03-01T21:27:49;0.20;39.70
12849;DHT22;6493;50.928;7.172;2023-03-01T21:32:54;0.20;40.30
12849;DHT22;6493;50.928;7.172;2023-03-01T21:37:57;0.10;39.80
12849;DHT22;6493;50.928;7.172;2023-03-01T21:43:01;0.10;39.80
12849;DHT22;6493;50.928;7.172;2023-03-01T21:48:05;0.10;39.90
12849;DHT22;6493;50.928;7.172;2023-03-01T21:53:08;0.10;39.90
12849;DHT22;6493;50.928;7.172;2023-03-01T21:58:11;0.00;39.80
12849;DHT22;6493;50.928;7.172;2023-03-01T22:03:16;0.00;39.90
12849;DHT22;6493;50.928;7.172;2023-03-01T22:08:20;0.00;39.90
12849;DHT22;6493;50.928;7.172;2023-03-01T22:13:23;-0.10;39.90
12849;DHT22;6493;50.928;7.172;2023-03-01T22:18:27;-0.10;40.00
12849;DHT22;6493;50.928;7.172;2023-03-01T22:23:31;-0.20;39.90
12849;DHT22;6493;50.928;7.172;2023-03-01T22:28:35;-0.20;40.00
12849;DHT22;6493;50.928;7.172;2023-03-01T22:33:39;-0.20;40.00
12849;DHT22;6493;50.928;7.172;2023-03-01T22:38:42;-0.30;40.00
12849;DHT22;6493;50.928;7.172;2023-03-01T22:43:46;-0.30;40.10
12849;DHT22;6493;50.928;7.172;2023-03-01T22:48:50;-0.30;40.10
12849;DHT22;6493;50.928;7.172;2023-03-01T22:53:54;-0.40;40.10
12849;DHT22;6493;50.928;7.172;2023-03-01T22:58:58;-0.50;40.10
12849;DHT22;6493;50.928;7.172;2023-03-01T23:04:03;-0.50;40.10
12849;DHT22;6493;50.928;7.172;2023-03-01T23:09:08;-0.60;40.20
12849;DHT22;6493;50.928;7.172;2023-03-01T23:14:15;-0.70;40.20
12849;DHT22;6493;50.928;7.172;2023-03-01T23:19:19;-0.70;40.20
12849;DHT22;6493;50.928;7.172;2023-03-01T23:24:23;-0.80;40.20
12849;DHT22;6493;50.928;7.172;2023-03-01T23:29:32;-0.90;40.30
12849;DHT22;6493;50.928;7.172;2023-03-01T23:34:37;-0.90;40.40
12849;DHT22;6493;50.928;7.172;2023-03-01T23:39:44;-1.00;40.30
12849;DHT22;6493;50.928;7.172;2023-03-01T23:44:48;-1.00;40.40
12849;DHT22;6493;50.928;7.172;2023-03-01T23:49:52;-1.10;40.40
12849;DHT22;6493;50.928;7.172;2023-03-01T23:54:57;-1.10;40.60
